Buckley Air Force Base
KBKF : rendu visible

Aérodrome :











RETROUVEZ-NOUS SUR...

 
LOGIN :

S'inscrire | Disclaimer

   EN    FR    IT 

 









Légende :    VFR   VFR Marginal   IFR   IFR Intensif   IFR Très Intensif
Visi : 
Plafond : 
>= 8 km
>= 3000ft
5 à 8 km
1000 à 3000 ft
1500m à 5 km
500 à 1000 ft
800 à 1500m
200 à 500 ft
< 800m
< 200 ft
Symboles :   Orages  Brouillard  Fortes neiges  Fortes précipitations  Vent > 20 kt






- Altitude de l'aérodrome : 5662 ft


KBKF - Buckley Air Force Base

DERNIER METAR :
  • 211558Z 35003KT 4SM -SN BR BKN005 OVC010 M03/M03 A3011 RMK AO2A FZDZE33SNB33 SLP218 P0000 T10341035

METARs EXPIRÉS :
  • 211533Z 01005KT 2SM -SN BR OVC004 M03/M04 A3010 RMK AO2A SLP215
  • 211458Z 02005KT 1 3/4SM -FZDZ BR OVC003 M04/M04 A3009 RMK AO2A SLP211 P0000 60000 T10361037 52012
  • 211358Z 02005KT 1 1/2SM -FZDZ BR OVC002 M04/M04 A3008 RMK AO2A SLP207 P0000 T10391040
  • 211349Z 03006KT 1 1/2SM -FZDZ BR OVC002 M04/M04 A3007 RMK AO2A SLP204
  • 211258Z 01008KT 3SM -FZDZ BR OVC003 M04/M04 A3006 RMK AO2A SLP200 P0000 T10381039

TAF AMD TAF KBKF
Valide du 21 à 12h jusqu'au 22 à 15h UTC


211220Z 2112/2215 02009KT 6000 -FZDZ OVC003 660004 QNH3001INS
TEMPO 2112/2117 OVC007
BECMG 2116/2117 02009KT 6000 -SHSN OVC015 660159 QNH3003INS
BECMG 2119/2120 VRB06KT 6000 -SHSN BR BKN025 660259 QNH3005INS
BECMG 2206/2207 VRB06KT 4800 -SN BR BKN010 660109 QNH3005INS TXM01/2121Z TNM04/2114Z



MET'MAP, la Météo Aéronautique d'un coup d'oeil ! - Copyright ORBIFLY Décembre 2007 - Disclaimer

ORBIFLY MET'MAP TEAM :

Programmation & Développement : Alexandra Zaïnal
Conception & Développement : Baudouin d'Aumeries
Co-Programmation & Développement : Marc-Olivier Méhu
Soutien technique & logistique : Manuel Goepfert

Contact : metmap@orbifly.com




SOURCES & CREDITS :

   NOAA       Earth
Advisory